Time;durP1;ratioP1;P1;durP2;ratioP2;P2;SDS_P1;SDS_P2;PMS_P1;PMS_P2;Temp;Humidity;BMP_temperature;BMP_pressure;BME280_temperature;BME280_humidity;BME280_pressure;Samples;Min_cycle;Max_cycle;Signal;HPM_P1;HPM_P2
2024/05/03 00:00:32;;;;;;;;;;;;;;;;;;;;;
2024/05/03 00:03:01;;;;;;;0.57;0.50;;;;;;;;;;5273054;27;20017;-79
2024/05/03 00:05:32;;;;;;;0.57;0.40;;;;;;;;;;5272865;27;20089;-80
2024/05/03 00:08:00;;;;;;;0.50;0.43;;;;;;;;;;5321954;26;20043;-82
2024/05/03 00:10:30;;;;;;;0.52;0.52;;;;;;;;;;5356768;26;20160;-78
2024/05/03 00:13:18;;;;;;;0.73;0.47;;;;;;;;;;5372899;26;20007;-80
2024/05/03 00:16:11;;;;;;;0.28;0.28;;;;;;;;;;5373333;26;20011;-81
2024/05/03 00:18:56;;;;;;;0.77;0.70;;;;;;;;;;5372416;26;20020;-80
2024/05/03 00:24:33;;;;;;;1.48;0.68;;;;;;;;;;5443976;26;20006;-80
2024/05/03 00:27:09;;;;;;;0.47;0.20;;;;;;;;;;5443255;26;20029;-80
2024/05/03 00:30:06;;;;;;;0.50;0.30;;;;;;;;;;5443800;26;20011;-80
2024/05/03 00:32:58;;;;;;;0.80;0.80;;;;;;;;;;5443657;26;20333;-81
2024/05/03 00:35:37;;;;;;;0.93;0.43;;;;;;;;;;5413285;26;20006;-80
2024/05/03 00:38:32;;;;;;;0.55;0.55;;;;;;;;;;5443076;26;19990;-80
2024/05/03 00:41:29;;;;;;;;;;;;;;;;;;;;;
2024/05/03 00:44:24;;;;;;;1.92;1.05;;;;;;;;;;5446821;26;20006;-78
2024/05/03 00:47:03;;;;;;;1.08;0.77;;;;;;;;;;5433511;26;20477;-80
2024/05/03 00:49:35;;;;;;;0.83;0.63;;;;;;;;;;5444280;26;20063;-77
2024/05/03 00:52:12;;;;;;;1.08;0.50;;;;;;;;;;5415676;26;20541;-80
2024/05/03 00:54:47;;;;;;;0.55;0.55;;;;;;;;;;5430011;26;20499;-81
2024/05/03 00:57:26;;;;;;;0.77;0.63;;;;;;;;;;5420076;26;20014;-80
2024/05/03 01:00:01;;;;;;;1.30;0.57;;;;;;;;;;5405198;26;20457;-78
2024/05/03 01:02:42;;;;;;;1.58;0.75;;;;;;;;;;5397125;26;20520;-79
2024/05/03 01:05:36;;;;;;;1.17;1.08;;;;;;;;;;5395352;26;20360;-79
2024/05/03 01:11:16;;;;;;;0.47;0.47;;;;;;;;;;5415501;26;20011;-79
2024/05/03 01:13:54;;;;;;;1.05;0.85;;;;;;;;;;5414106;26;20003;-80
2024/05/03 01:16:27;;;;;;;0.65;0.32;;;;;;;;;;5386467;26;20105;-79
2024/05/03 01:18:55;;;;;;;0.57;0.43;;;;;;;;;;5386079;26;20042;-78
2024/05/03 01:21:46;;;;;;;0.30;0.30;;;;;;;;;;5398834;26;20885;-78
2024/05/03 01:24:19;;;;;;;1.60;0.85;;;;;;;;;;5444957;26;20052;-78
2024/05/03 01:26:53;;;;;;;4.60;0.80;;;;;;;;;;5445123;26;20005;-78
2024/05/03 01:29:31;;;;;;;0.75;0.50;;;;;;;;;;5441120;26;20014;-80
2024/05/03 01:32:00;;;;;;;5.28;1.25;;;;;;;;;;5414527;26;20338;-80
2024/05/03 01:34:28;;;;;;;0.82;0.60;;;;;;;;;;5410518;26;19999;-81
2024/05/03 01:37:00;;;;;;;0.95;0.57;;;;;;;;;;5389233;26;20007;-80
2024/05/03 01:39:43;;;;;;;1.58;0.75;;;;;;;;;;5422452;26;20007;-79
2024/05/03 01:42:42;;;;;;;1.45;0.82;;;;;;;;;;5384418;26;20006;-80
2024/05/03 01:45:41;;;;;;;3.15;0.93;;;;;;;;;;5402587;26;20015;-80
2024/05/03 01:48:29;;;;;;;2.37;1.37;;;;;;;;;;5422734;26;20035;-79
2024/05/03 01:51:03;;;;;;;1.13;0.77;;;;;;;;;;5403125;26;20014;-78
2024/05/03 01:53:38;;;;;;;2.03;1.52;;;;;;;;;;5394716;26;20006;-78
2024/05/03 01:56:04;;;;;;;0.82;0.80;;;;;;;;;;5395967;26;20335;-79
2024/05/03 01:58:33;;;;;;;0.90;0.85;;;;;;;;;;5392304;26;20015;-77
2024/05/03 02:01:29;;;;;;;;;;;;;;;;;;;;;
2024/05/03 02:04:09;;;;;;;2.00;0.95;;;;;;;;;;5409610;26;19998;-78
2024/05/03 02:07:14;;;;;;;;;;;;;;;;;;;;;
2024/05/03 02:09:45;;;;;;;5.65;1.33;;;;;;;;;;5415659;26;19995;-80
2024/05/03 02:12:16;;;;;;;2.72;1.55;;;;;;;;;;5425336;26;20011;-79
2024/05/03 02:14:44;;;;;;;0.93;0.80;;;;;;;;;;5401435;26;20405;-79
2024/05/03 02:17:17;;;;;;;1.08;0.93;;;;;;;;;;5418853;26;19999;-78
2024/05/03 02:19:46;;;;;;;2.22;1.08;;;;;;;;;;5426267;26;20003;-77
2024/05/03 02:22:27;;;;;;;;;;;;;;;;;;;;;
2024/05/03 02:24:56;;;;;;;1.52;0.88;;;;;;;;;;5426019;26;19999;-79
2024/05/03 02:27:27;;;;;;;3.22;1.67;;;;;;;;;;5395619;26;20406;-82
2024/05/03 02:30:10;;;;;;;1.90;1.52;;;;;;;;;;5394284;26;20072;-78
2024/05/03 02:32:51;;;;;;;2.20;1.73;;;;;;;;;;5430034;26;20100;-78
2024/05/03 02:35:30;;;;;;;2.53;1.67;;;;;;;;;;5421437;26;20011;-79
2024/05/03 02:38:02;;;;;;;2.40;1.52;;;;;;;;;;5428587;26;20068;-79
2024/05/03 02:40:28;;;;;;;3.13;2.10;;;;;;;;;;5393555;26;20021;-81
2024/05/03 02:42:57;;;;;;;3.13;2.15;;;;;;;;;;5432474;26;19999;-78
2024/05/03 02:45:25;;;;;;;4.03;1.80;;;;;;;;;;5400886;26;20013;-79
2024/05/03 02:48:01;;;;;;;7.07;2.83;;;;;;;;;;5433497;26;20083;-80
2024/05/03 02:50:32;;;;;;;6.82;1.30;;;;;;;;;;5387316;26;19999;-78
2024/05/03 02:53:07;;;;;;;2.03;1.60;;;;;;;;;;5410103;26;20018;-81
2024/05/03 03:02:04;;;;;;;2.22;1.63;;;;;;;;;;5375863;26;20459;-81
2024/05/03 03:04:40;;;;;;;4.03;1.70;;;;;;;;;;5391706;26;19998;-79
2024/05/03 03:07:15;;;;;;;3.83;2.45;;;;;;;;;;5341398;26;19997;-80
2024/05/03 03:10:01;;;;;;;;;;;;;;;;;;;;;
2024/05/03 03:12:58;;;;;;;2.17;1.73;;;;;;;;;;5338467;26;20002;-80
2024/05/03 03:15:34;;;;;;;3.90;1.67;;;;;;;;;;5308908;26;20055;-79
2024/05/03 03:18:22;;;;;;;2.42;1.50;;;;;;;;;;5340471;26;20015;-79
2024/05/03 03:20:50;;;;;;;3.67;2.05;;;;;;;;;;5337492;26;20008;-78
2024/05/03 03:23:39;;;;;;;2.40;1.52;;;;;;;;;;5325862;26;20003;-78
2024/05/03 03:26:29;;;;;;;4.68;1.77;;;;;;;;;;5339846;26;20009;-79
2024/05/03 03:28:57;;;;;;;2.25;1.58;;;;;;;;;;5336882;26;20481;-79
2024/05/03 03:31:31;;;;;;;1.50;1.25;;;;;;;;;;5310487;26;20035;-78
2024/05/03 03:34:11;;;;;;;5.53;2.33;;;;;;;;;;5337115;26;20012;-78
2024/05/03 03:36:37;;;;;;;1.80;1.48;;;;;;;;;;5338106;26;20007;-79
2024/05/03 03:39:03;;;;;;;4.93;2.08;;;;;;;;;;5433043;26;20843;-78
2024/05/03 03:41:43;;;;;;;3.13;1.48;;;;;;;;;;5415110;26;20043;-79
2024/05/03 03:44:13;;;;;;;2.75;1.35;;;;;;;;;;5447674;26;20342;-78
2024/05/03 03:46:41;;;;;;;;;;;;;;;;;;5447225;26;20010;-78
2024/05/03 03:49:13;;;;;;;1.50;1.35;;;;;;;;;;5415974;26;20344;-77
2024/05/03 03:51:55;;;;;;;1.73;1.10;;;;;;;;;;5444639;26;20007;-79
2024/05/03 03:54:28;;;;;;;0.47;0.47;;;;;;;;;;5445773;26;20003;-77
2024/05/03 03:56:56;;;;;;;4.82;1.73;;;;;;;;;;5416566;26;20408;-77
2024/05/03 03:59:32;;;;;;;1.27;1.00;;;;;;;;;;5417325;26;20064;-80
2024/05/03 04:02:03;;;;;;;3.25;1.98;;;;;;;;;;5444610;26;20094;-78
2024/05/03 04:04:40;;;;;;;1.73;1.10;;;;;;;;;;5445745;26;19999;-79
2024/05/03 04:10:05;;;;;;;2.77;1.73;;;;;;;;;;5448268;26;20780;-79
2024/05/03 04:12:49;;;;;;;1.23;0.90;;;;;;;;;;5449056;26;20316;-79
2024/05/03 04:15:40;;;;;;;1.95;1.13;;;;;;;;;;5444674;26;20337;-78
2024/05/03 04:18:06;;;;;;;2.78;1.35;;;;;;;;;;5415361;26;20350;-78
2024/05/03 04:20:49;;;;;;;3.08;1.52;;;;;;;;;;5442844;26;19990;-78
2024/05/03 04:26:50;;;;;;;2.78;1.58;;;;;;;;;;5447538;26;20006;-79
2024/05/03 04:29:21;;;;;;;1.67;0.88;;;;;;;;;;5446641;26;20040;-76
2024/05/03 04:31:47;;;;;;;1.77;1.33;;;;;;;;;;5447180;26;20611;-77
2024/05/03 04:34:28;;;;;;;;;;;;;;;;;;;;;
2024/05/03 04:37:11;;;;;;;10.88;1.80;;;;;;;;;;5447772;26;20085;-76
2024/05/03 04:39:46;;;;;;;4.38;1.80;;;;;;;;;;5444211;26;20006;-77
2024/05/03 04:42:20;;;;;;;3.25;1.90;;;;;;;;;;5441804;26;20411;-77
2024/05/03 04:44:48;;;;;;;1.15;0.93;;;;;;;;;;5448777;26;19998;-78
2024/05/03 04:47:19;;;;;;;2.45;1.25;;;;;;;;;;5421392;26;19995;-77
2024/05/03 04:49:46;;;;;;;2.30;1.63;;;;;;;;;;5447221;26;19999;-78
2024/05/03 04:52:23;;;;;;;3.97;1.60;;;;;;;;;;5442114;26;20003;-79
2024/05/03 04:54:56;;;;;;;8.40;2.58;;;;;;;;;;5387813;26;20026;-78
2024/05/03 04:57:21;;;;;;;3.10;2.10;;;;;;;;;;5420107;26;21569;-78
2024/05/03 04:59:47;;;;;;;2.03;1.17;;;;;;;;;;5416193;26;19999;-78
2024/05/03 05:02:13;;;;;;;2.63;1.52;;;;;;;;;;5425825;26;20011;-78
2024/05/03 05:04:39;;;;;;;6.07;3.15;;;;;;;;;;5419282;26;20003;-77
2024/05/03 05:07:04;;;;;;;2.97;1.48;;;;;;;;;;5419477;26;20445;-78
2024/05/03 05:09:30;;;;;;;3.92;2.33;;;;;;;;;;5425346;26;20000;-77
2024/05/03 05:11:56;;;;;;;5.45;2.10;;;;;;;;;;5421013;26;20005;-77
2024/05/03 05:14:21;;;;;;;2.95;1.90;;;;;;;;;;5399762;26;20019;-78
2024/05/03 05:16:46;;;;;;;3.00;2.10;;;;;;;;;;5425378;26;20557;-78
2024/05/03 05:19:12;;;;;;;3.92;2.72;;;;;;;;;;5388088;26;20027;-78
2024/05/03 05:24:22;;;;;;;3.35;1.60;;;;;;;;;;5420503;26;20019;-77
2024/05/03 05:26:47;;;;;;;4.90;1.13;;;;;;;;;;5419548;26;20000;-77
2024/05/03 05:29:13;;;;;;;1.63;1.33;;;;;;;;;;5418328;26;20525;-78
2024/05/03 05:31:44;;;;;;;1.13;0.90;;;;;;;;;;5412910;26;20432;-77
2024/05/03 05:34:16;;;;;;;4.38;1.90;;;;;;;;;;5411288;26;20006;-79
2024/05/03 05:36:41;;;;;;;2.33;1.65;;;;;;;;;;5418223;26;20030;-77
2024/05/03 05:39:07;;;;;;;2.80;1.73;;;;;;;;;;5418680;26;19995;-78
2024/05/03 05:41:32;;;;;;;2.38;1.40;;;;;;;;;;5387432;26;20007;-76
2024/05/03 05:43:59;;;;;;;1.48;1.15;;;;;;;;;;5382630;26;20056;-77
2024/05/03 05:46:24;;;;;;;5.50;1.88;;;;;;;;;;5412910;26;20023;-76
2024/05/03 05:48:51;;;;;;;3.75;1.25;;;;;;;;;;5386327;26;20448;-78
2024/05/03 05:51:17;;;;;;;2.72;1.52;;;;;;;;;;5419787;26;20014;-77
2024/05/03 05:53:44;;;;;;;9.00;0.98;;;;;;;;;;5405749;26;20011;-79
2024/05/03 05:56:12;;;;;;;1.13;0.95;;;;;;;;;;5373788;26;19991;-78
2024/05/03 05:58:38;;;;;;;1.45;0.75;;;;;;;;;;5405307;26;20076;-79
2024/05/03 06:01:04;;;;;;;0.68;0.55;;;;;;;;;;5379181;26;20467;-79
2024/05/03 06:03:30;;;;;;;1.75;0.93;;;;;;;;;;5373880;26;20011;-80
2024/05/03 06:05:56;;;;;;;1.65;1.05;;;;;;;;;;5374613;26;20054;-76
2024/05/03 06:08:21;;;;;;;1.50;0.65;;;;;;;;;;5377485;26;20015;-78
2024/05/03 06:10:47;;;;;;;2.28;0.95;;;;;;;;;;5408310;26;20039;-78
2024/05/03 06:13:12;;;;;;;0.65;0.65;;;;;;;;;;5403960;26;20331;-79
2024/05/03 06:15:38;;;;;;;11.57;0.70;;;;;;;;;;5408400;26;20819;-78
2024/05/03 06:18:03;;;;;;;1.85;0.70;;;;;;;;;;5406142;26;20032;-78
2024/05/03 06:20:29;;;;;;;1.08;0.98;;;;;;;;;;5406219;26;20453;-78
2024/05/03 06:22:54;;;;;;;0.55;0.55;;;;;;;;;;5376767;26;20462;-77
2024/05/03 06:25:20;;;;;;;1.42;0.77;;;;;;;;;;5376198;26;19999;-78
2024/05/03 06:27:45;;;;;;;1.20;0.93;;;;;;;;;;5411035;26;19999;-78
2024/05/03 06:30:11;;;;;;;0.20;0.20;;;;;;;;;;5405499;26;20000;-78
2024/05/03 06:32:37;;;;;;;0.10;0.10;;;;;;;;;;5410388;26;20010;-78
2024/05/03 06:35:02;;;;;;;0.25;0.25;;;;;;;;;;5409856;26;20014;-78
2024/05/03 06:37:31;;;;;;;2.30;1.05;;;;;;;;;;5411998;26;19996;-82
2024/05/03 06:39:57;;;;;;;2.00;1.00;;;;;;;;;;5416022;26;22690;-80
2024/05/03 06:42:22;;;;;;;0.25;0.20;;;;;;;;;;5411170;26;20390;-79
2024/05/03 06:44:47;;;;;;;0.73;0.50;;;;;;;;;;5413112;26;19996;-81
2024/05/03 06:47:13;;;;;;;0.20;0.20;;;;;;;;;;5415827;26;20065;-79
2024/05/03 06:49:38;;;;;;;0.65;0.40;;;;;;;;;;5410575;26;20038;-83
2024/05/03 06:52:04;;;;;;;0.35;0.20;;;;;;;;;;5411683;26;20339;-83
2024/05/03 06:54:29;;;;;;;0.10;0.10;;;;;;;;;;5384088;26;20109;-81
2024/05/03 06:56:55;;;;;;;0.28;0.28;;;;;;;;;;5417120;26;20003;-84
2024/05/03 06:59:29;;;;;;;0.08;0.08;;;;;;;;;;5415138;26;20015;-77
2024/05/03 07:01:55;;;;;;;0.10;0.10;;;;;;;;;;5414205;26;20011;-78
2024/05/03 07:04:26;;;;;;;0.10;0.10;;;;;;;;;;5411059;26;20455;-81
2024/05/03 07:06:51;;;;;;;0.20;0.20;;;;;;;;;;5414608;26;19999;-83
2024/05/03 07:09:17;;;;;;;0.20;0.10;;;;;;;;;;5383705;26;20457;-85
2024/05/03 07:11:42;;;;;;;0.10;0.10;;;;;;;;;;5384725;26;20332;-83
2024/05/03 07:14:09;;;;;;;0.00;0.00;;;;;;;;;;5413697;26;20008;-80
2024/05/03 07:16:34;;;;;;;0.03;0.00;;;;;;;;;;5383713;26;20007;-81
2024/05/03 07:19:00;;;;;;;0.10;0.10;;;;;;;;;;5413158;26;20488;-85
2024/05/03 07:21:26;;;;;;;0.00;0.00;;;;;;;;;;5414178;26;20004;-83
2024/05/03 07:23:52;;;;;;;0.00;0.00;;;;;;;;;;5413563;26;19999;-84
2024/05/03 07:26:18;;;;;;;0.00;0.00;;;;;;;;;;5415890;26;20003;-84
2024/05/03 07:28:44;;;;;;;0.00;0.00;;;;;;;;;;5382967;26;20017;-78
2024/05/03 07:31:10;;;;;;;0.00;0.00;;;;;;;;;;5382825;26;20448;-80
2024/05/03 07:33:36;;;;;;;0.10;0.10;;;;;;;;;;5381722;26;20076;-83
2024/05/03 07:36:05;;;;;;;0.00;0.00;;;;;;;;;;5383603;26;20327;-84
2024/05/03 07:38:34;;;;;;;0.00;0.00;;;;;;;;;;5381107;26;20018;-84
2024/05/03 07:40:59;;;;;;;0.00;0.00;;;;;;;;;;5414782;26;20018;-84
2024/05/03 07:43:31;;;;;;;0.00;0.00;;;;;;;;;;5384084;26;19999;-84
2024/05/03 07:45:57;;;;;;;0.43;0.25;;;;;;;;;;5383396;26;20335;-84
2024/05/03 07:48:29;;;;;;;1.20;0.47;;;;;;;;;;5382439;26;19999;-87
2024/05/03 07:50:58;;;;;;;2.03;0.43;;;;;;;;;;5414774;26;20015;-86
2024/05/03 07:53:23;;;;;;;0.25;0.15;;;;;;;;;;5427341;26;19997;-85
2024/05/03 07:55:51;;;;;;;0.00;0.00;;;;;;;;;;5448787;26;20040;-80
2024/05/03 07:58:16;;;;;;;0.00;0.00;;;;;;;;;;5419939;26;20358;-83
2024/05/03 08:00:47;;;;;;;0.00;0.00;;;;;;;;;;5418669;26;19994;-83
2024/05/03 08:03:13;;;;;;;0.10;0.10;;;;;;;;;;5451853;26;20435;-82
2024/05/03 08:05:39;;;;;;;0.10;0.10;;;;;;;;;;5451801;26;20040;-81
2024/05/03 08:08:05;;;;;;;0.00;0.00;;;;;;;;;;5418441;26;20079;-84
2024/05/03 08:10:30;;;;;;;0.00;0.00;;;;;;;;;;5448300;26;20003;-83
2024/05/03 08:12:56;;;;;;;2.28;0.10;;;;;;;;;;5448019;26;20043;-83
2024/05/03 08:15:21;;;;;;;0.00;0.00;;;;;;;;;;5444000;26;20003;-83
2024/05/03 08:17:50;;;;;;;0.08;0.08;;;;;;;;;;5417440;26;20007;-82
2024/05/03 08:20:16;;;;;;;0.10;0.10;;;;;;;;;;5447656;26;20003;-83
2024/05/03 08:22:42;;;;;;;1.17;1.10;;;;;;;;;;5450582;26;20013;-86
2024/05/03 08:25:08;;;;;;;0.00;0.00;;;;;;;;;;5419015;26;20002;-85
2024/05/03 08:27:33;;;;;;;0.08;0.08;;;;;;;;;;5449656;26;20018;-86
2024/05/03 08:29:59;;;;;;;0.00;0.00;;;;;;;;;;5449522;26;19999;-82
2024/05/03 08:32:24;;;;;;;0.10;0.10;;;;;;;;;;5417850;26;20035;-85
2024/05/03 08:34:51;;;;;;;0.00;0.00;;;;;;;;;;5451376;26;20047;-82
2024/05/03 08:37:16;;;;;;;0.00;0.00;;;;;;;;;;5446569;26;19999;-84
2024/05/03 08:39:44;;;;;;;0.00;0.00;;;;;;;;;;5417794;26;20006;-82
2024/05/03 08:42:19;;;;;;;0.08;0.08;;;;;;;;;;5418206;26;19998;-81
2024/05/03 08:44:53;;;;;;;0.10;0.10;;;;;;;;;;5448240;26;20002;-82
2024/05/03 08:47:23;;;;;;;0.30;0.20;;;;;;;;;;5460090;26;20032;-80
2024/05/03 08:50:02;;;;;;;0.00;0.00;;;;;;;;;;5447592;26;20013;-81
2024/05/03 08:52:32;;;;;;;0.10;0.10;;;;;;;;;;5445883;26;20007;-79
2024/05/03 08:55:00;;;;;;;0.10;0.10;;;;;;;;;;5416222;26;20260;-81
2024/05/03 08:57:26;;;;;;;0.10;0.10;;;;;;;;;;5419704;26;20010;-81
2024/05/03 08:59:55;;;;;;;0.20;0.20;;;;;;;;;;5416214;26;20071;-81
2024/05/03 09:02:21;;;;;;;0.52;0.35;;;;;;;;;;5458398;26;20100;-77
2024/05/03 09:04:46;;;;;;;0.10;0.10;;;;;;;;;;5447789;26;20006;-80
2024/05/03 09:07:18;;;;;;;0.43;0.28;;;;;;;;;;5445103;26;20002;-79
2024/05/03 09:09:50;;;;;;;0.32;0.30;;;;;;;;;;5459203;26;20010;-78
2024/05/03 09:12:20;;;;;;;0.20;0.20;;;;;;;;;;5444695;26;20042;-81
2024/05/03 09:14:46;;;;;;;;;;;;;;;;;;5445872;26;20043;-79
2024/05/03 09:17:13;;;;;;;0.15;0.15;;;;;;;;;;5414421;26;19933;-82
2024/05/03 09:19:42;;;;;;;0.10;0.10;;;;;;;;;;5419284;26;20015;-82
2024/05/03 09:22:11;;;;;;;0.03;0.03;;;;;;;;;;5417688;26;20499;-83
2024/05/03 09:24:36;;;;;;;0.10;0.10;;;;;;;;;;5446761;26;19999;-81
2024/05/03 09:27:02;;;;;;;0.00;0.00;;;;;;;;;;5445448;26;21637;-79
2024/05/03 09:29:27;;;;;;;0.10;0.10;;;;;;;;;;5446461;26;20434;-80
2024/05/03 09:31:53;;;;;;;0.10;0.10;;;;;;;;;;5418337;26;20011;-81
2024/05/03 09:34:18;;;;;;;0.00;0.00;;;;;;;;;;5445423;26;20017;-81
2024/05/03 09:36:44;;;;;;;0.20;0.20;;;;;;;;;;5417092;26;20096;-80
2024/05/03 09:39:11;;;;;;;0.10;0.10;;;;;;;;;;5446803;26;20016;-80
2024/05/03 09:41:36;;;;;;;0.17;0.10;;;;;;;;;;5446758;26;20007;-80
2024/05/03 09:44:02;;;;;;;0.10;0.10;;;;;;;;;;5413541;26;20002;-80
2024/05/03 09:46:28;;;;;;;0.20;0.20;;;;;;;;;;5441449;26;19995;-81
2024/05/03 09:48:54;;;;;;;0.00;0.00;;;;;;;;;;5415326;26;20427;-80
2024/05/03 09:51:26;;;;;;;0.08;0.08;;;;;;;;;;5445695;26;20021;-79
2024/05/03 09:54:03;;;;;;;0.10;0.10;;;;;;;;;;5390927;26;20003;-79
2024/05/03 09:56:36;;;;;;;0.13;0.13;;;;;;;;;;5417349;26;20004;-77
2024/05/03 09:59:14;;;;;;;0.10;0.10;;;;;;;;;;5424022;26;20013;-82
2024/05/03 10:01:41;;;;;;;0.10;0.10;;;;;;;;;;5420907;26;20045;-80
2024/05/03 10:04:08;;;;;;;0.52;0.40;;;;;;;;;;5409679;26;20045;-81
2024/05/03 10:06:34;;;;;;;0.40;0.20;;;;;;;;;;5414508;26;20004;-83
2024/05/03 10:09:01;;;;;;;0.20;0.20;;;;;;;;;;5419344;26;20753;-82
2024/05/03 10:11:29;;;;;;;0.10;0.10;;;;;;;;;;5423982;26;20083;-80
2024/05/03 10:13:55;;;;;;;0.10;0.10;;;;;;;;;;5428931;26;20446;-79
2024/05/03 10:16:21;;;;;;;0.10;0.10;;;;;;;;;;5419915;26;20351;-83
2024/05/03 10:18:47;;;;;;;0.10;0.10;;;;;;;;;;5408022;26;20051;-79
2024/05/03 10:21:35;;;;;;;0.10;0.10;;;;;;;;;;5423304;26;20049;-82
2024/05/03 10:24:02;;;;;;;0.40;0.40;;;;;;;;;;5415133;26;20013;-82
2024/05/03 10:26:33;;;;;;;0.10;0.10;;;;;;;;;;5431942;26;20003;-80
2024/05/03 10:29:00;;;;;;;0.10;0.10;;;;;;;;;;5429482;26;20011;-80
2024/05/03 10:31:36;;;;;;;0.10;0.10;;;;;;;;;;5425750;26;20010;-82
2024/05/03 10:34:01;;;;;;;0.10;0.10;;;;;;;;;;5391022;26;20014;-82
2024/05/03 10:36:27;;;;;;;0.00;0.00;;;;;;;;;;5423396;26;20004;-82
2024/05/03 10:38:53;;;;;;;0.20;0.10;;;;;;;;;;5417926;26;20454;-80
2024/05/03 10:41:19;;;;;;;1.10;0.35;;;;;;;;;;5429198;26;19998;-80
2024/05/03 10:43:45;;;;;;;0.00;0.00;;;;;;;;;;5424323;26;20010;-80
2024/05/03 10:46:11;;;;;;;0.00;0.00;;;;;;;;;;5415905;26;19994;-82
2024/05/03 10:48:39;;;;;;;0.10;0.10;;;;;;;;;;5377891;26;20005;-84
2024/05/03 10:51:05;;;;;;;0.10;0.10;;;;;;;;;;5425050;26;20093;-81
2024/05/03 10:53:32;;;;;;;0.08;0.08;;;;;;;;;;5411234;26;20006;-83
2024/05/03 10:55:57;;;;;;;0.10;0.10;;;;;;;;;;5410392;26;20031;-80
2024/05/03 10:58:26;;;;;;;0.00;0.00;;;;;;;;;;5381778;26;19999;-81
2024/05/03 11:00:56;;;;;;;0.10;0.10;;;;;;;;;;5412790;26;20000;-81
2024/05/03 11:06:07;;;;;;;0.00;0.00;;;;;;;;;;5414260;26;20018;-81
2024/05/03 11:08:33;;;;;;;0.43;0.10;;;;;;;;;;5377094;26;20004;-79
2024/05/03 11:10:59;;;;;;;0.35;0.17;;;;;;;;;;5430308;26;20032;-79
2024/05/03 11:13:24;;;;;;;0.00;0.00;;;;;;;;;;5414736;26;20014;-80
2024/05/03 11:15:50;;;;;;;0.80;0.10;;;;;;;;;;5413022;26;20455;-82
2024/05/03 11:18:16;;;;;;;0.10;0.10;;;;;;;;;;5413319;26;20389;-82
2024/05/03 11:20:42;;;;;;;0.10;0.10;;;;;;;;;;5378834;26;20486;-83
2024/05/03 11:23:09;;;;;;;3.58;1.85;;;;;;;;;;5371781;26;20019;-81
2024/05/03 11:25:47;;;;;;;0.10;0.10;;;;;;;;;;5370495;26;20004;-82
2024/05/03 11:28:21;;;;;;;0.10;0.10;;;;;;;;;;5380646;26;20003;-81
2024/05/03 11:30:48;;;;;;;0.10;0.10;;;;;;;;;;5410471;26;19999;-82
2024/05/03 11:33:19;;;;;;;0.10;0.10;;;;;;;;;;5381713;26;19995;-82
2024/05/03 11:35:46;;;;;;;0.10;0.10;;;;;;;;;;5378326;26;20012;-82
2024/05/03 11:38:11;;;;;;;0.10;0.10;;;;;;;;;;5410795;26;20018;-82
2024/05/03 11:40:39;;;;;;;0.08;0.08;;;;;;;;;;5376805;26;20757;-80
2024/05/03 11:43:05;;;;;;;0.10;0.10;;;;;;;;;;5397848;26;20000;-81
2024/05/03 11:45:31;;;;;;;0.47;0.30;;;;;;;;;;5402144;26;21869;-83
2024/05/03 11:47:57;;;;;;;0.10;0.10;;;;;;;;;;5408519;26;20011;-80
2024/05/03 11:50:22;;;;;;;0.15;0.10;;;;;;;;;;5408262;26;20007;-85
2024/05/03 11:52:50;;;;;;;0.25;0.25;;;;;;;;;;5406544;26;20018;-81
2024/05/03 11:55:16;;;;;;;0.30;0.30;;;;;;;;;;5387906;26;20431;-82
2024/05/03 11:57:44;;;;;;;0.10;0.10;;;;;;;;;;5401686;26;20114;-84
2024/05/03 12:00:10;;;;;;;0.10;0.10;;;;;;;;;;5376903;26;20022;-84
2024/05/03 12:02:36;;;;;;;0.08;0.08;;;;;;;;;;5410819;26;20010;-82
2024/05/03 12:05:02;;;;;;;1.20;0.35;;;;;;;;;;5405764;26;19999;-83
2024/05/03 12:07:30;;;;;;;0.10;0.10;;;;;;;;;;5384770;26;20011;-82
2024/05/03 12:10:00;;;;;;;1.88;1.20;;;;;;;;;;5413256;26;20006;-81
2024/05/03 12:12:28;;;;;;;0.13;0.13;;;;;;;;;;5411907;26;19999;-80
2024/05/03 12:14:54;;;;;;;0.20;0.20;;;;;;;;;;5382925;26;20071;-81
2024/05/03 12:17:19;;;;;;;0.17;0.17;;;;;;;;;;5414557;26;20740;-79
2024/05/03 12:19:45;;;;;;;0.25;0.25;;;;;;;;;;5409708;26;20073;-81
2024/05/03 12:22:10;;;;;;;0.28;0.20;;;;;;;;;;5377007;26;20023;-81
2024/05/03 12:24:35;;;;;;;0.10;0.10;;;;;;;;;;5408570;26;20018;-81
2024/05/03 12:27:01;;;;;;;0.30;0.30;;;;;;;;;;5411149;26;20006;-80
2024/05/03 12:29:27;;;;;;;0.25;0.20;;;;;;;;;;5410159;26;20004;-83
2024/05/03 12:31:52;;;;;;;0.20;0.20;;;;;;;;;;5408258;26;20397;-78
2024/05/03 12:34:18;;;;;;;0.45;0.13;;;;;;;;;;5410830;26;20057;-82
2024/05/03 12:36:44;;;;;;;0.20;0.20;;;;;;;;;;5406524;26;20374;-82
2024/05/03 12:39:10;;;;;;;0.20;0.20;;;;;;;;;;5404230;26;20073;-80
2024/05/03 12:41:35;;;;;;;0.10;0.10;;;;;;;;;;5409254;26;20019;-83
2024/05/03 12:44:00;;;;;;;0.20;0.20;;;;;;;;;;5404415;26;20003;-80
2024/05/03 12:46:26;;;;;;;0.63;0.47;;;;;;;;;;5404760;26;20000;-83
2024/05/03 12:48:52;;;;;;;0.80;0.43;;;;;;;;;;5402173;26;20010;-82
2024/05/03 12:51:17;;;;;;;0.47;0.40;;;;;;;;;;5402516;26;19996;-82
2024/05/03 12:53:43;;;;;;;0.65;0.30;;;;;;;;;;5441200;26;20451;-80
2024/05/03 12:56:08;;;;;;;0.30;0.30;;;;;;;;;;5444396;26;20056;-83
2024/05/03 12:58:33;;;;;;;0.63;0.63;;;;;;;;;;5444407;26;20017;-82
2024/05/03 13:00:59;;;;;;;0.10;0.10;;;;;;;;;;5415029;26;20003;-81
2024/05/03 13:03:25;;;;;;;0.30;0.30;;;;;;;;;;5442085;26;20030;-83
2024/05/03 13:05:50;;;;;;;0.50;0.50;;;;;;;;;;5444441;26;20025;-82
2024/05/03 13:08:16;;;;;;;0.60;0.47;;;;;;;;;;5407702;26;20045;-81
2024/05/03 13:13:36;;;;;;;0.65;0.60;;;;;;;;;;5444327;26;20386;-81
2024/05/03 13:16:02;;;;;;;0.52;0.30;;;;;;;;;;5442173;26;20346;-81
2024/05/03 13:18:28;;;;;;;0.30;0.30;;;;;;;;;;5439228;26;20088;-82
2024/05/03 13:20:53;;;;;;;0.47;0.43;;;;;;;;;;5443559;26;20003;-80
2024/05/03 13:23:19;;;;;;;0.43;0.40;;;;;;;;;;5442214;26;20400;-82
2024/05/03 13:25:45;;;;;;;0.22;0.22;;;;;;;;;;5409670;26;19994;-81
2024/05/03 13:28:11;;;;;;;0.22;0.22;;;;;;;;;;5442473;26;19995;-82
2024/05/03 13:30:37;;;;;;;0.10;0.10;;;;;;;;;;5408931;26;20039;-79
2024/05/03 13:33:02;;;;;;;0.20;0.20;;;;;;;;;;5409272;26;20010;-79
2024/05/03 13:35:28;;;;;;;0.20;0.20;;;;;;;;;;5440610;26;19999;-81
2024/05/03 13:37:53;;;;;;;0.10;0.10;;;;;;;;;;5436854;26;19998;-79
2024/05/03 13:40:19;;;;;;;0.20;0.20;;;;;;;;;;5411056;26;20737;-79
2024/05/03 13:42:45;;;;;;;2.00;0.68;;;;;;;;;;5444064;26;19998;-79
2024/05/03 13:45:10;;;;;;;0.30;0.30;;;;;;;;;;5444991;26;20079;-81
2024/05/03 13:47:38;;;;;;;0.10;0.10;;;;;;;;;;5442608;26;19995;-80
2024/05/03 13:50:08;;;;;;;0.22;0.22;;;;;;;;;;5442529;26;20774;-82
2024/05/03 13:52:34;;;;;;;0.10;0.10;;;;;;;;;;5439117;26;20017;-81
2024/05/03 13:55:03;;;;;;;0.10;0.10;;;;;;;;;;5443693;26;20400;-78
2024/05/03 13:57:29;;;;;;;0.65;0.20;;;;;;;;;;5443124;26;20697;-80
2024/05/03 13:59:54;;;;;;;0.57;0.32;;;;;;;;;;5434818;26;19996;-80
2024/05/03 14:02:20;;;;;;;0.20;0.20;;;;;;;;;;5442160;26;20035;-82
2024/05/03 14:04:46;;;;;;;0.10;0.10;;;;;;;;;;5438189;26;20034;-78
2024/05/03 14:07:12;;;;;;;0.10;0.10;;;;;;;;;;5406504;26;20322;-81
2024/05/03 14:09:39;;;;;;;0.47;0.30;;;;;;;;;;5407786;26;20027;-79
2024/05/03 14:12:05;;;;;;;0.10;0.10;;;;;;;;;;5412651;26;20360;-79
2024/05/03 14:14:30;;;;;;;0.43;0.20;;;;;;;;;;5406236;26;20010;-80
2024/05/03 14:16:57;;;;;;;0.10;0.10;;;;;;;;;;5439176;26;20001;-79
2024/05/03 14:19:23;;;;;;;0.40;0.35;;;;;;;;;;5412369;26;20015;-80
2024/05/03 14:21:48;;;;;;;0.20;0.20;;;;;;;;;;5441620;26;19995;-80
2024/05/03 14:24:14;;;;;;;0.30;0.25;;;;;;;;;;5410256;26;19999;-79
2024/05/03 14:26:39;;;;;;;0.35;0.30;;;;;;;;;;5413269;26;20461;-80
2024/05/03 14:29:05;;;;;;;0.75;0.45;;;;;;;;;;5443240;26;19999;-80
2024/05/03 14:31:30;;;;;;;0.60;0.50;;;;;;;;;;5447252;26;19995;-80
2024/05/03 14:33:56;;;;;;;0.10;0.10;;;;;;;;;;5440055;26;19999;-79
2024/05/03 14:36:21;;;;;;;0.20;0.20;;;;;;;;;;5411662;26;20073;-79
2024/05/03 14:38:46;;;;;;;0.30;0.17;;;;;;;;;;5417084;26;20007;-78
2024/05/03 14:41:12;;;;;;;0.20;0.10;;;;;;;;;;5441287;26;20013;-80
2024/05/03 14:43:37;;;;;;;0.22;0.22;;;;;;;;;;5442195;26;20021;-81
2024/05/03 14:46:03;;;;;;;0.20;0.20;;;;;;;;;;5418092;26;20007;-80
2024/05/03 14:48:28;;;;;;;0.20;0.17;;;;;;;;;;5415769;26;20797;-80
2024/05/03 14:50:54;;;;;;;0.10;0.10;;;;;;;;;;5411343;26;20547;-79
2024/05/03 14:53:19;;;;;;;0.80;0.70;;;;;;;;;;5441407;26;19999;-81
2024/05/03 14:55:44;;;;;;;0.10;0.10;;;;;;;;;;5409617;26;19995;-80
2024/05/03 14:58:10;;;;;;;0.00;0.00;;;;;;;;;;5444181;26;19995;-78
2024/05/03 15:00:35;;;;;;;0.30;0.30;;;;;;;;;;5411423;26;20019;-81
2024/05/03 15:03:01;;;;;;;0.60;0.30;;;;;;;;;;5423609;26;19996;-79
2024/05/03 15:05:26;;;;;;;0.22;0.22;;;;;;;;;;5412140;26;19998;-79
2024/05/03 15:07:52;;;;;;;0.13;0.10;;;;;;;;;;5418269;26;20515;-78
2024/05/03 15:10:17;;;;;;;0.20;0.20;;;;;;;;;;5430985;26;20006;-80
2024/05/03 15:12:43;;;;;;;0.10;0.10;;;;;;;;;;5415881;26;20003;-77
2024/05/03 15:15:08;;;;;;;0.20;0.20;;;;;;;;;;5416265;26;19995;-78
2024/05/03 15:17:34;;;;;;;0.50;0.47;;;;;;;;;;5426490;26;20100;-78
2024/05/03 15:20:03;;;;;;;0.88;0.55;;;;;;;;;;5417310;26;19999;-78
2024/05/03 15:22:28;;;;;;;0.22;0.22;;;;;;;;;;5398083;26;20011;-78
2024/05/03 15:24:55;;;;;;;0.20;0.10;;;;;;;;;;5417470;26;20311;-77
2024/05/03 15:27:20;;;;;;;0.28;0.28;;;;;;;;;;5446849;26;20536;-78
2024/05/03 15:29:46;;;;;;;0.70;0.70;;;;;;;;;;5446982;26;20010;-78
2024/05/03 15:32:13;;;;;;;1.10;0.55;;;;;;;;;;5443004;26;20000;-76